Axel, Netherlands
Current Conditions -  °F | °C
As of 9:25 AM on Monday 24 Nov 2014 (Local Time) from EHFS Reporting Station
Clear Clear  
Wind Chill: 42°   Ceiling: Unl
Heat Index: 45°   Visibility: 6mi
Dew Point: 39°   Wind: 5mph
Humidity: 81%   Direction: 330°NNW
Pressure: 30.27"   Gusts: NA
Location:  51.27°N, 3.91°E
Report Text: EHFS 240825Z AUTO 33004KT 9999 NCD 07/04 Q1025
Loading
Personal Weather Stations






























Interactive Weather Map New forecast layout! Learn more

10-Day Weather Forecast

Advertisements
Track Severe Weather on mobile